Time;durP1;ratioP1;P1;durP2;ratioP2;P2;SDS_P1;SDS_P2;PMS_P1;PMS_P2;Temp;Humidity;BMP_temperature;BMP_pressure;BME280_temperature;BME280_humidity;BME280_pressure;Samples;Min_cycle;Max_cycle;Signal;HPM_P1;HPM_P2
2024/04/05 00:02:03;;;;;;;4.43;0.40;;;;;;;37.09;27.67;98124.69;7392915;19;20439;-57
2024/04/05 00:04:29;;;;;;;0.63;0.63;;;;;;;37.37;27.86;98124.34;7388473;19;20010;-57
2024/04/05 00:06:55;;;;;;;0.85;0.10;;;;;;;35.22;29.41;98127.72;7395798;19;20015;-57
2024/04/05 00:09:21;;;;;;;1.10;0.43;;;;;;;33.82;31.10;98119.13;7391619;19;20021;-57
2024/04/05 00:11:47;;;;;;;1.08;0.55;;;;;;;33.82;30.99;98111.22;7392393;19;20011;-57
2024/04/05 00:14:13;;;;;;;0.95;0.63;;;;;;;33.84;30.94;98105.47;7391737;19;20018;-57
2024/04/05 00:16:39;;;;;;;0.22;0.22;;;;;;;34.66;30.60;98111.94;7394349;19;20078;-57
2024/04/05 00:19:05;;;;;;;2.28;0.25;;;;;;;35.21;29.71;98103.13;7391515;19;20022;-57
2024/04/05 00:21:31;;;;;;;7.78;0.85;;;;;;;36.40;28.96;98090.94;7393048;19;20011;-57
2024/04/05 00:24:00;;;;;;;8.82;0.45;;;;;;;37.13;28.07;98087.72;7389974;19;20007;-57
2024/04/05 00:26:28;;;;;;;0.77;0.45;;;;;;;36.47;28.87;98084.53;7392082;19;20411;-57
2024/04/05 00:28:54;;;;;;;2.47;0.45;;;;;;;36.56;28.77;98085.41;7393816;19;20022;-57
2024/04/05 00:31:20;;;;;;;0.10;0.00;;;;;;;37.20;27.98;98080.56;7396306;19;20744;-57
2024/04/05 00:33:46;;;;;;;0.25;0.17;;;;;;;37.62;27.46;98080.38;7390909;19;20030;-57
2024/04/05 00:36:14;;;;;;;0.65;0.50;;;;;;;37.73;27.67;98055.03;7390587;19;20017;-57
2024/04/05 00:38:41;;;;;;;0.63;0.45;;;;;;;37.57;27.69;98058.53;7390676;19;20019;-57
2024/04/05 00:41:07;;;;;;;2.53;0.20;;;;;;;37.23;28.01;98061.00;7392087;19;20363;-58
2024/04/05 00:43:34;;;;;;;4.72;0.20;;;;;;;36.06;29.26;98050.50;7392452;19;20011;-58
2024/04/05 00:46:03;;;;;;;0.15;0.05;;;;;;;36.12;28.95;98044.06;7394631;19;20010;-58
2024/04/05 00:48:32;;;;;;;0.38;0.25;;;;;;;36.41;28.75;98034.38;7400173;19;20037;-58
2024/04/05 00:50:58;;;;;;;5.10;0.25;;;;;;;36.55;28.94;98031.00;7399016;19;20352;-57
2024/04/05 00:53:31;;;;;;;12.50;0.57;;;;;;;37.15;28.21;98026.78;7397080;19;20053;-57
2024/04/05 00:55:59;;;;;;;0.75;0.35;;;;;;;37.45;28.11;98011.19;7397450;19;20062;-58
2024/04/05 00:58:26;;;;;;;0.20;0.20;;;;;;;36.79;28.88;98008.88;7396193;19;20355;-57
2024/04/05 01:00:53;;;;;;;0.65;0.30;;;;;;;35.92;29.32;98015.44;7397526;19;20003;-58
2024/04/05 01:03:20;;;;;;;0.32;0.32;;;;;;;35.66;29.71;98012.81;7396180;19;20013;-58
2024/04/05 01:05:47;;;;;;;0.38;0.35;;;;;;;36.12;29.07;98009.28;7395179;19;20014;-58
2024/04/05 01:08:14;;;;;;;0.35;0.22;;;;;;;36.31;29.13;98003.06;7394500;19;20027;-58
2024/04/05 01:10:41;;;;;;;4.80;0.20;;;;;;;36.34;29.08;98000.94;7399829;19;20020;-58
2024/04/05 01:13:09;;;;;;;8.70;0.73;;;;;;;36.11;29.26;97999.13;7395921;19;20342;-58
2024/04/05 01:15:36;;;;;;;2.05;0.40;;;;;;;36.06;29.13;98001.22;7395410;19;20486;-58
2024/04/05 01:18:05;;;;;;;0.95;0.20;;;;;;;33.96;30.83;98001.78;7396546;19;20125;-58
2024/04/05 01:20:33;;;;;;;0.20;0.10;;;;;;;33.64;31.58;97989.41;7401069;19;20011;-58
2024/04/05 01:23:01;;;;;;;2.30;0.20;;;;;;;33.67;31.60;97990.94;7397893;19;20021;-58
2024/04/05 01:25:27;;;;;;;0.10;0.10;;;;;;;33.91;31.46;97997.34;7397306;19;20045;-58
2024/04/05 01:27:54;;;;;;;1.48;0.63;;;;;;;34.19;30.87;97986.50;7396460;19;20410;-58
2024/04/05 01:30:20;;;;;;;1.45;0.32;;;;;;;34.27;31.10;97983.06;7398014;19;20126;-57
2024/04/05 01:32:52;;;;;;;1.00;0.30;;;;;;;33.52;31.73;97971.78;7398523;19;20019;-58
2024/04/05 01:35:18;;;;;;;1.27;0.30;;;;;;;35.32;30.04;97965.84;7400065;19;20459;-57
2024/04/05 01:37:44;;;;;;;0.82;0.35;;;;;;;35.02;30.42;97953.66;7399913;19;20011;-58
2024/04/05 01:40:11;;;;;;;0.10;0.10;;;;;;;35.33;29.93;97952.81;7396363;19;20506;-58
2024/04/05 01:42:37;;;;;;;0.70;0.38;;;;;;;33.96;31.56;97955.56;7396402;19;20761;-58
2024/04/05 01:45:04;;;;;;;10.05;0.65;;;;;;;34.90;30.57;97930.22;7396750;19;20070;-58
2024/04/05 01:47:30;;;;;;;1.20;0.43;;;;;;;33.68;31.68;97943.31;7396594;19;20010;-58
2024/04/05 01:49:56;;;;;;;4.95;0.57;;;;;;;34.80;30.82;97938.72;7393849;19;20035;-58
2024/04/05 01:52:23;;;;;;;2.08;0.50;;;;;;;35.00;30.34;97939.13;7399972;19;20023;-58
2024/04/05 01:54:49;;;;;;;0.10;0.10;;;;;;;34.95;30.59;97920.97;7397230;19;20013;-57
2024/04/05 01:57:15;;;;;;;0.38;0.20;;;;;;;34.87;30.29;97925.84;7396432;19;20031;-57
2024/04/05 01:59:53;;;;;;;0.35;0.35;;;;;;;34.40;30.83;97926.25;7393955;19;20115;-57
2024/04/05 02:02:20;;;;;;;0.50;0.50;;;;;;;35.57;29.55;97924.31;7394433;19;20450;-57
2024/04/05 02:04:46;;;;;;;0.50;0.50;;;;;;;36.48;28.73;97923.59;7395001;19;20086;-58
2024/04/05 02:07:12;;;;;;;1.85;0.73;;;;;;;36.70;28.92;97920.25;7393626;19;20455;-57
2024/04/05 02:09:38;;;;;;;1.20;0.45;;;;;;;37.05;28.19;97909.81;7398748;19;20011;-58
2024/04/05 02:12:06;;;;;;;7.03;0.63;;;;;;;37.22;28.06;97915.06;7395136;19;20017;-58
2024/04/05 02:14:33;;;;;;;0.10;0.10;;;;;;;37.23;27.54;97904.91;7395841;19;20015;-57
2024/04/05 02:16:59;;;;;;;2.40;1.05;;;;;;;36.98;28.04;97896.66;7397855;19;20006;-57
2024/04/05 02:19:25;;;;;;;0.35;0.20;;;;;;;36.59;28.52;97900.50;7397851;19;20014;-57
2024/04/05 02:21:51;;;;;;;0.10;0.10;;;;;;;36.43;28.95;97901.03;7398775;19;20070;-58
2024/04/05 02:24:17;;;;;;;0.32;0.22;;;;;;;35.72;29.23;97894.16;7393697;19;20024;-58
2024/04/05 02:26:43;;;;;;;3.63;0.80;;;;;;;34.79;30.24;97896.75;7394650;19;20470;-57
2024/04/05 02:29:09;;;;;;;0.57;0.30;;;;;;;34.54;30.66;97889.00;7396698;19;20017;-57
2024/04/05 02:31:35;;;;;;;0.13;0.10;;;;;;;34.90;30.32;97895.50;7394899;19;20033;-57
2024/04/05 02:34:03;;;;;;;1.67;0.75;;;;;;;34.71;30.22;97879.22;7399758;19;20017;-57
2024/04/05 02:36:30;;;;;;;0.57;0.20;;;;;;;35.38;29.66;97884.88;7394979;19;20014;-57
2024/04/05 02:38:56;;;;;;;0.52;0.30;;;;;;;35.34;29.85;97876.13;7394050;19;20021;-57
2024/04/05 02:41:22;;;;;;;4.68;0.90;;;;;;;35.19;30.03;97885.25;7395593;19;20014;-57
2024/04/05 02:43:48;;;;;;;0.40;0.38;;;;;;;35.21;30.03;97880.22;7391762;19;20471;-57
2024/04/05 02:46:15;;;;;;;1.70;0.68;;;;;;;34.91;30.19;97876.75;7394082;19;20011;-57
2024/04/05 02:48:41;;;;;;;8.10;0.85;;;;;;;35.66;29.30;97867.25;7393601;19;20066;-57
2024/04/05 02:51:07;;;;;;;0.35;0.30;;;;;;;37.19;27.82;97880.91;7395129;19;20581;-57
2024/04/05 02:53:33;;;;;;;3.55;1.35;;;;;;;37.83;27.54;97864.09;7392647;19;20014;-57
2024/04/05 02:55:59;;;;;;;0.10;0.10;;;;;;;37.97;27.45;97872.16;7397477;19;20011;-57
2024/04/05 02:58:26;;;;;;;7.13;0.57;;;;;;;38.20;27.23;97865.06;7398657;19;20467;-57
2024/04/05 03:00:55;;;;;;;11.80;1.42;;;;;;;38.40;26.61;97868.06;7394778;19;20093;-57
2024/04/05 03:03:22;;;;;;;2.15;0.85;;;;;;;38.49;27.11;97860.84;7393881;19;20022;-57
2024/04/05 03:05:48;;;;;;;4.53;0.88;;;;;;;38.03;26.79;97840.25;7393254;19;20019;-57
2024/04/05 03:08:15;;;;;;;0.13;0.10;;;;;;;37.80;26.80;97847.34;7392599;19;20073;-57
2024/04/05 03:10:41;;;;;;;0.25;0.25;;;;;;;37.91;26.98;97849.59;7391360;19;20014;-58
2024/04/05 03:13:08;;;;;;;0.50;0.50;;;;;;;38.22;26.75;97844.69;7394480;19;20070;-57
2024/04/05 03:15:35;;;;;;;0.20;0.20;;;;;;;37.91;26.78;97848.88;7393538;19;20010;-57
2024/04/05 03:18:02;;;;;;;0.60;0.60;;;;;;;37.97;27.02;97843.09;7391208;19;20031;-57
2024/04/05 03:20:31;;;;;;;3.60;0.65;;;;;;;37.93;26.96;97843.06;7395520;19;20018;-57
2024/04/05 03:22:57;;;;;;;0.63;0.28;;;;;;;38.04;26.95;97847.50;7392196;19;20018;-57
2024/04/05 03:25:24;;;;;;;0.85;0.25;;;;;;;37.87;26.75;97840.13;7395137;19;20025;-57
2024/04/05 03:27:50;;;;;;;0.60;0.30;;;;;;;37.39;27.21;97836.81;7393255;19;20010;-57
2024/04/05 03:30:16;;;;;;;7.30;0.47;;;;;;;37.70;26.87;97844.34;7396616;19;20006;-57
2024/04/05 03:32:42;;;;;;;4.50;0.30;;;;;;;37.78;27.00;97844.41;7397717;19;20014;-57
2024/04/05 03:35:09;;;;;;;0.77;0.40;;;;;;;35.66;28.93;97844.81;7392350;19;20018;-57
2024/04/05 03:37:38;;;;;;;1.00;0.40;;;;;;;35.18;29.24;97832.41;7393509;19;20018;-57
2024/04/05 03:40:05;;;;;;;0.65;0.52;;;;;;;34.64;29.57;97842.94;7393046;19;20014;-57
2024/04/05 03:42:31;;;;;;;4.38;0.57;;;;;;;33.73;30.74;97840.94;7395665;19;20011;-57
2024/04/05 03:44:57;;;;;;;0.20;0.20;;;;;;;33.66;30.76;97829.94;7394442;19;20006;-57
2024/04/05 03:47:23;;;;;;;0.75;0.55;;;;;;;34.56;30.02;97828.31;7394802;19;20015;-57
2024/04/05 03:49:50;;;;;;;2.72;0.57;;;;;;;34.58;29.57;97832.00;7392410;19;20022;-57
2024/04/05 03:52:16;;;;;;;0.50;0.50;;;;;;;33.83;30.69;97832.47;7396151;19;20006;-57
2024/04/05 03:54:42;;;;;;;0.43;0.28;;;;;;;34.25;30.39;97821.91;7392065;19;20359;-57
2024/04/05 03:57:09;;;;;;;2.25;0.50;;;;;;;34.31;30.16;97816.25;7391221;19;20343;-57
2024/04/05 03:59:35;;;;;;;9.52;1.02;;;;;;;34.28;30.51;97823.38;7392498;19;20562;-57
2024/04/05 04:02:01;;;;;;;0.10;0.10;;;;;;;34.52;29.96;97828.25;7394079;19;20023;-57
2024/04/05 04:04:28;;;;;;;1.35;0.57;;;;;;;34.72;29.99;97822.84;7395195;19;20011;-57
2024/04/05 04:06:54;;;;;;;9.07;0.22;;;;;;;33.79;30.74;97823.72;7391741;19;20007;-57
2024/04/05 04:09:20;;;;;;;0.10;0.10;;;;;;;35.05;29.70;97817.00;7394150;19;20019;-58
2024/04/05 04:11:46;;;;;;;1.50;1.40;;;;;;;34.60;29.81;97825.50;7392272;19;20041;-57
2024/04/05 04:14:15;;;;;;;4.22;0.47;;;;;;;35.05;29.83;97816.25;7396458;19;20010;-57
2024/04/05 04:16:41;;;;;;;0.52;0.10;;;;;;;35.95;28.80;97798.88;7391629;19;20462;-57
2024/04/05 04:19:10;;;;;;;2.05;0.40;;;;;;;34.59;29.74;97821.16;7391804;19;20015;-57
2024/04/05 04:21:37;;;;;;;0.73;0.20;;;;;;;34.78;29.70;97809.22;7396408;19;20517;-57
2024/04/05 04:24:03;;;;;;;7.32;1.00;;;;;;;34.31;30.25;97804.69;7398017;19;20038;-57
2024/04/05 04:26:29;;;;;;;0.20;0.20;;;;;;;33.48;30.82;97804.94;7398836;19;20463;-57
2024/04/05 04:28:57;;;;;;;0.10;0.10;;;;;;;33.27;31.23;97808.03;7399349;19;20025;-57
2024/04/05 04:31:23;;;;;;;0.10;0.10;;;;;;;33.26;31.07;97806.56;7396114;19;20018;-57
2024/04/05 04:33:51;;;;;;;0.60;0.15;;;;;;;33.61;31.17;97803.13;7402034;19;20070;-57
2024/04/05 04:36:21;;;;;;;0.93;0.08;;;;;;;34.27;30.24;97793.03;7398689;19;20486;-57
2024/04/05 04:38:53;;;;;;;0.17;0.17;;;;;;;34.00;30.40;97793.88;7399260;19;20011;-57
2024/04/05 04:41:20;;;;;;;4.57;0.75;;;;;;;33.72;30.45;97787.50;7398212;19;20035;-57
2024/04/05 04:43:46;;;;;;;8.65;0.75;;;;;;;33.75;30.61;97789.00;7397649;19;20017;-57
2024/04/05 04:46:13;;;;;;;1.02;0.45;;;;;;;34.10;30.15;97784.72;7397581;19;20010;-57
2024/04/05 04:48:40;;;;;;;0.55;0.55;;;;;;;33.52;30.72;97784.88;7399062;19;20082;-57
2024/04/05 04:51:06;;;;;;;0.10;0.00;;;;;;;33.96;30.78;97781.50;7399972;19;20017;-57
2024/04/05 04:53:32;;;;;;;1.60;0.17;;;;;;;34.11;30.70;97774.63;7398684;19;20062;-57
2024/04/05 04:55:59;;;;;;;0.38;0.32;;;;;;;33.69;30.71;97765.03;7401623;19;20416;-57
2024/04/05 04:58:28;;;;;;;0.10;0.00;;;;;;;33.68;30.75;97772.22;7401549;19;20018;-57
2024/04/05 05:00:58;;;;;;;6.18;0.52;;;;;;;33.05;31.21;97770.69;7397168;19;20014;-57
2024/04/05 05:03:25;;;;;;;0.40;0.25;;;;;;;33.63;30.46;97756.97;7397680;19;20011;-57
2024/04/05 05:05:51;;;;;;;0.10;0.10;;;;;;;33.34;30.67;97769.97;7397066;19;20481;-57
2024/04/05 05:08:17;;;;;;;7.95;0.50;;;;;;;33.61;30.97;97763.41;7396960;19;20362;-57
2024/04/05 05:10:44;;;;;;;0.50;0.10;;;;;;;34.31;30.35;97766.34;7396768;19;20420;-57
2024/04/05 05:13:11;;;;;;;1.30;0.25;;;;;;;33.90;29.92;97773.44;7397518;19;20015;-57
2024/04/05 05:15:42;;;;;;;0.10;0.00;;;;;;;33.96;30.18;97770.66;7395787;19;20031;-57
2024/04/05 05:18:11;;;;;;;0.25;0.25;;;;;;;34.01;30.43;97765.75;7396520;19;20011;-57
2024/04/05 05:20:44;;;;;;;0.10;0.10;;;;;;;33.68;30.60;97764.28;7400778;19;20010;-57
2024/04/05 05:23:10;;;;;;;0.10;0.10;;;;;;;34.74;29.35;97768.66;7397226;19;20070;-57
2024/04/05 05:25:37;;;;;;;0.20;0.20;;;;;;;34.42;29.84;97768.03;7396289;19;20017;-57
2024/04/05 05:28:04;;;;;;;0.10;0.10;;;;;;;34.41;29.92;97766.56;7396106;19;20092;-57
2024/04/05 05:30:30;;;;;;;2.58;1.10;;;;;;;34.50;29.72;97764.56;7400008;19;20014;-57
2024/04/05 05:32:56;;;;;;;0.10;0.10;;;;;;;34.51;30.12;97774.72;7400967;19;20014;-57
2024/04/05 05:35:23;;;;;;;1.00;0.28;;;;;;;34.57;29.82;97771.94;7396134;19;20027;-57
2024/04/05 05:37:50;;;;;;;0.13;0.13;;;;;;;34.76;29.68;97771.59;7396683;19;20025;-57
2024/04/05 05:40:16;;;;;;;0.20;0.20;;;;;;;34.89;29.62;97755.91;7400628;19;20018;-57
2024/04/05 05:42:42;;;;;;;0.10;0.10;;;;;;;34.99;29.61;97758.25;7397991;19;20043;-57
2024/04/05 05:45:08;;;;;;;1.65;0.32;;;;;;;34.87;29.40;97752.28;7397300;19;20474;-57
2024/04/05 05:47:34;;;;;;;0.52;0.40;;;;;;;35.13;29.43;97761.41;7394534;19;20015;-57
2024/04/05 05:50:00;;;;;;;0.10;0.10;;;;;;;35.18;28.99;97757.13;7399647;19;20051;-57
2024/04/05 05:52:26;;;;;;;0.30;0.30;;;;;;;35.38;29.22;97748.78;7399416;19;20010;-57
2024/04/05 05:54:53;;;;;;;0.20;0.20;;;;;;;35.30;29.16;97751.56;7399521;19;20495;-57
2024/04/05 05:57:19;;;;;;;0.90;0.55;;;;;;;35.27;29.22;97746.41;7400609;19;20123;-57
2024/04/05 05:59:46;;;;;;;1.20;0.30;;;;;;;35.49;29.08;97738.84;7399632;19;20007;-57
2024/04/05 06:02:13;;;;;;;0.63;0.40;;;;;;;35.16;29.32;97728.16;7399803;19;20437;-57
2024/04/05 06:04:40;;;;;;;0.45;0.30;;;;;;;34.98;29.31;97734.38;7398937;19;20010;-57
2024/04/05 06:07:07;;;;;;;0.17;0.17;;;;;;;34.96;29.27;97745.16;7397213;19;20049;-57
2024/04/05 06:09:33;;;;;;;1.27;0.35;;;;;;;34.86;29.48;97745.75;7398058;19;20006;-57
2024/04/05 06:12:00;;;;;;;0.45;0.45;;;;;;;35.03;29.41;97746.78;7399667;19;20007;-57
2024/04/05 06:14:28;;;;;;;0.15;0.15;;;;;;;35.09;29.53;97755.53;7399970;19;20006;-57
2024/04/05 06:16:54;;;;;;;2.10;0.20;;;;;;;35.05;29.53;97761.25;7396822;19;20006;-56
2024/04/05 06:19:20;;;;;;;0.50;0.50;;;;;;;35.02;29.56;97756.88;7397155;19;20038;-56
2024/04/05 06:21:46;;;;;;;0.73;0.20;;;;;;;35.46;29.02;97757.59;7398684;19;20400;-56
2024/04/05 06:24:13;;;;;;;3.03;0.70;;;;;;;35.67;29.21;97758.66;7398420;19;20014;-56
2024/04/05 06:26:39;;;;;;;0.50;0.20;;;;;;;35.96;28.89;97753.97;7398308;19;20470;-56
2024/04/05 06:29:06;;;;;;;0.52;0.25;;;;;;;36.03;28.92;97755.53;7398373;19;20014;-56
2024/04/05 06:31:34;;;;;;;0.22;0.22;;;;;;;36.07;29.02;97759.22;7398508;19;20006;-55
2024/04/05 06:34:00;;;;;;;0.10;0.10;;;;;;;36.15;28.84;97758.56;7399012;19;20010;-56
2024/04/05 06:36:28;;;;;;;0.10;0.10;;;;;;;36.11;28.93;97764.31;7398740;19;20118;-56
2024/04/05 06:38:54;;;;;;;0.10;0.10;;;;;;;36.02;28.82;97759.88;7398164;19;20127;-56
2024/04/05 06:41:20;;;;;;;0.38;0.38;;;;;;;36.01;28.84;97755.50;7396570;19;20007;-56
2024/04/05 06:43:46;;;;;;;0.40;0.28;;;;;;;35.72;29.07;97766.69;7396413;19;20007;-55
2024/04/05 06:46:14;;;;;;;1.40;0.22;;;;;;;35.82;29.17;97762.47;7392488;19;20043;-56
2024/04/05 06:48:40;;;;;;;0.63;0.57;;;;;;;35.92;28.82;97751.00;7391295;19;20011;-56
2024/04/05 06:51:11;;;;;;;0.22;0.22;;;;;;;35.88;28.78;97760.38;7394550;19;20015;-56
2024/04/05 06:53:38;;;;;;;0.17;0.00;;;;;;;35.95;28.96;97769.88;7393434;19;20097;-56
2024/04/05 06:56:10;;;;;;;0.10;0.10;;;;;;;35.82;28.68;97774.06;7397111;19;20045;-56
2024/04/05 06:58:36;;;;;;;0.13;0.10;;;;;;;35.74;28.81;97781.19;7394477;19;20050;-56
2024/04/05 07:01:03;;;;;;;1.77;0.20;;;;;;;35.64;29.10;97778.16;7393675;19;20062;-56
2024/04/05 07:03:29;;;;;;;1.05;0.50;;;;;;;35.16;29.54;97783.16;7392579;19;20351;-56
2024/04/05 07:06:03;;;;;;;0.47;0.47;;;;;;;34.70;29.67;97779.41;7392464;19;20018;-56
2024/04/05 07:08:31;;;;;;;5.82;0.30;;;;;;;34.53;29.93;97786.31;7396374;19;20015;-56
2024/04/05 07:10:57;;;;;;;0.35;0.22;;;;;;;34.51;30.15;97804.38;7394432;19;20115;-56
2024/04/05 07:13:25;;;;;;;1.65;0.38;;;;;;;35.03;29.94;97790.91;7393377;19;20066;-56
2024/04/05 07:15:52;;;;;;;0.75;0.75;;;;;;;34.77;29.94;97783.88;7393316;19;20015;-56
2024/04/05 07:18:22;;;;;;;0.10;0.10;;;;;;;34.59;30.37;97787.16;7392285;19;20010;-56
2024/04/05 07:20:48;;;;;;;0.73;0.22;;;;;;;34.59;30.23;97806.72;7398145;19;20010;-56
2024/04/05 07:23:14;;;;;;;0.73;0.63;;;;;;;34.88;30.27;97814.47;7392344;19;20029;-56
2024/04/05 07:25:40;;;;;;;3.03;0.38;;;;;;;34.67;30.45;97815.53;7393430;19;20006;-56
2024/04/05 07:28:07;;;;;;;0.08;0.00;;;;;;;34.58;30.74;97819.69;7392077;19;20014;-56
2024/04/05 07:30:36;;;;;;;4.32;0.95;;;;;;;34.67;30.68;97821.31;7396402;19;20425;-55
2024/04/05 07:33:03;;;;;;;0.28;0.15;;;;;;;34.88;30.39;97818.09;7392677;19;20041;-56
2024/04/05 07:35:30;;;;;;;0.10;0.00;;;;;;;35.00;30.49;97820.50;7393266;19;20353;-56
2024/04/05 07:37:57;;;;;;;1.70;0.85;;;;;;;35.10;30.60;97809.13;7393436;19;20006;-56
2024/04/05 07:40:25;;;;;;;8.07;0.75;;;;;;;35.29;30.20;97805.09;7393804;19;20414;-56
2024/04/05 07:42:51;;;;;;;0.28;0.28;;;;;;;35.30;30.51;97809.47;7393094;19;20627;-56
2024/04/05 07:45:19;;;;;;;0.10;0.10;;;;;;;35.30;30.05;97811.63;7391147;19;20011;-56
2024/04/05 07:47:48;;;;;;;2.65;0.63;;;;;;;35.25;29.85;97807.91;7391225;19;20018;-56
2024/04/05 07:50:18;;;;;;;0.10;0.08;;;;;;;35.67;29.92;97808.59;7387497;19;20373;-56
2024/04/05 07:52:45;;;;;;;6.40;0.88;;;;;;;35.37;30.02;97816.78;7392080;19;20483;-56
2024/04/05 07:55:11;;;;;;;0.52;0.52;;;;;;;35.28;30.27;97806.50;7386944;19;20343;-56
2024/04/05 07:57:37;;;;;;;0.52;0.30;;;;;;;35.33;29.74;97813.84;7396332;19;20010;-56
2024/04/05 08:00:05;;;;;;;2.72;0.80;;;;;;;35.31;30.18;97824.66;7394589;19;20006;-56
2024/04/05 08:02:32;;;;;;;0.10;0.10;;;;;;;35.29;30.13;97813.03;7398869;19;20010;-56
2024/04/05 08:04:59;;;;;;;3.60;0.28;;;;;;;35.62;30.29;97810.00;7397579;19;20015;-56
2024/04/05 08:07:25;;;;;;;0.10;0.00;;;;;;;35.73;29.93;97820.31;7399826;19;20018;-56
2024/04/05 08:09:54;;;;;;;0.20;0.20;;;;;;;35.49;29.95;97819.94;7403234;19;20006;-56
2024/04/05 08:12:21;;;;;;;0.10;0.00;;;;;;;35.49;29.96;97817.03;7398874;19;20021;-56
2024/04/05 08:14:51;;;;;;;0.55;0.20;;;;;;;35.42;29.92;97827.03;7402157;19;20014;-56
2024/04/05 08:17:17;;;;;;;2.47;0.10;;;;;;;35.44;30.17;97812.56;7399241;19;20408;-56
2024/04/05 08:19:43;;;;;;;1.23;0.32;;;;;;;35.38;30.11;97820.44;7400861;19;20111;-56
2024/04/05 08:22:09;;;;;;;3.55;0.63;;;;;;;35.54;29.96;97815.66;7399493;19;20007;-56
2024/04/05 08:24:36;;;;;;;8.15;0.50;;;;;;;35.50;29.88;97832.22;7396540;19;20010;-56
2024/04/05 08:27:02;;;;;;;0.70;0.70;;;;;;;35.59;29.82;97837.47;7401850;19;20466;-56
2024/04/05 08:29:29;;;;;;;3.38;1.08;;;;;;;35.74;29.99;97844.19;7399277;19;20011;-56
2024/04/05 08:31:55;;;;;;;2.42;0.55;;;;;;;35.89;30.12;97848.06;7402920;19;20010;-57
2024/04/05 08:34:21;;;;;;;0.40;0.25;;;;;;;35.97;29.41;97854.72;7398402;19;20031;-56
2024/04/05 08:36:51;;;;;;;0.20;0.08;;;;;;;36.10;29.61;97852.72;7397877;19;20025;-56
2024/04/05 08:39:18;;;;;;;0.20;0.20;;;;;;;35.87;29.89;97856.69;7399619;19;20034;-57
2024/04/05 08:41:47;;;;;;;6.13;0.47;;;;;;;36.10;29.48;97864.31;7398790;19;20058;-57
2024/04/05 08:44:15;;;;;;;2.08;0.68;;;;;;;36.10;29.56;97855.63;7396759;19;20017;-57
2024/04/05 08:46:42;;;;;;;0.65;0.35;;;;;;;35.73;29.21;97860.13;7398431;19;20007;-56
2024/04/05 08:49:10;;;;;;;7.68;0.77;;;;;;;35.70;29.31;97868.03;7400969;19;20019;-57
2024/04/05 08:51:40;;;;;;;0.20;0.13;;;;;;;35.52;29.37;97864.84;7402064;19;20015;-57
2024/04/05 08:54:09;;;;;;;0.10;0.10;;;;;;;35.48;29.57;97870.56;7398868;19;20462;-57
2024/04/05 08:56:35;;;;;;;7.57;0.60;;;;;;;35.58;29.31;97861.34;7398166;19;20347;-57
2024/04/05 08:59:03;;;;;;;5.97;0.55;;;;;;;35.43;29.18;97869.00;7398461;19;20006;-57
2024/04/05 09:01:29;;;;;;;3.80;0.68;;;;;;;35.33;29.15;97871.75;7397331;19;20015;-57
2024/04/05 09:03:55;;;;;;;0.20;0.17;;;;;;;33.80;30.94;97882.97;7396437;19;20013;-57
2024/04/05 09:06:21;;;;;;;1.35;0.47;;;;;;;33.74;30.91;97887.88;7397813;19;20377;-57
2024/04/05 09:09:00;;;;;;;1.55;0.47;;;;;;;33.59;30.93;97896.19;7397028;19;20015;-57
2024/04/05 09:11:26;;;;;;;16.33;0.43;;;;;;;33.66;31.41;97890.56;7401755;19;20039;-57
2024/04/05 09:14:03;;;;;;;2.08;0.47;;;;;;;33.79;31.24;97890.16;7397750;19;20014;-57
2024/04/05 09:16:31;;;;;;;0.55;0.20;;;;;;;33.85;30.99;97893.19;7397264;19;20459;-57
2024/04/05 09:19:08;;;;;;;5.00;0.30;;;;;;;33.73;31.71;97897.94;7397696;19;20015;-57
2024/04/05 09:21:35;;;;;;;0.55;0.55;;;;;;;33.96;31.19;97897.06;7396273;19;20011;-57
2024/04/05 09:24:02;;;;;;;2.45;0.95;;;;;;;34.30;31.80;97897.88;7399142;19;20019;-57
2024/04/05 09:26:28;;;;;;;2.20;0.70;;;;;;;36.22;29.83;97897.09;7396946;19;20022;-57
2024/04/05 09:28:58;;;;;;;1.52;0.88;;;;;;;35.37;30.10;97903.66;7396496;19;20037;-57
2024/04/05 09:31:25;;;;;;;7.35;0.98;;;;;;;36.36;28.94;97905.28;7397890;19;20011;-58
2024/04/05 09:34:10;;;;;;;8.65;1.52;;;;;;;36.81;28.42;97913.13;7399016;19;20023;-57
2024/04/05 09:36:37;;;;;;;3.38;0.98;;;;;;;37.68;27.72;97916.97;7399792;19;20018;-58
2024/04/05 09:39:06;;;;;;;10.48;1.55;;;;;;;38.16;27.32;97911.56;7399501;19;20017;-57
2024/04/05 09:41:34;;;;;;;5.05;0.82;;;;;;;38.35;26.99;97918.97;7400846;19;20014;-57
2024/04/05 09:44:04;;;;;;;2.10;0.93;;;;;;;37.89;27.30;97924.44;7395530;19;20007;-57
2024/04/05 09:46:31;;;;;;;;;;;;;;;38.78;26.79;97919.19;7399355;19;20026;-57
2024/04/05 09:48:59;;;;;;;6.53;1.27;;;;;;;38.47;26.47;97933.56;7400360;19;19937;-57
2024/04/05 09:51:30;;;;;;;2.92;0.90;;;;;;;36.51;27.80;97927.25;7396754;19;20119;-57
2024/04/05 09:54:00;;;;;;;5.38;1.63;;;;;;;37.66;27.01;97926.41;7396267;19;20011;-57
2024/04/05 09:56:30;;;;;;;3.17;0.83;;;;;;;37.29;27.02;97935.47;7400725;19;20019;-57
2024/04/05 09:58:58;;;;;;;3.72;0.43;;;;;;;37.91;26.71;97948.44;7397857;19;20471;-57
2024/04/05 10:01:25;;;;;;;7.57;1.48;;;;;;;37.10;27.44;97946.88;7396188;19;20011;-57
2024/04/05 10:03:53;;;;;;;6.13;1.00;;;;;;;35.47;28.20;97955.97;7394522;19;20066;-57
2024/04/05 10:06:21;;;;;;;3.63;0.70;;;;;;;35.15;28.85;97940.88;7395263;19;20659;-57
2024/04/05 10:08:48;;;;;;;7.65;0.82;;;;;;;34.98;29.52;97950.66;7396991;19;20042;-57
2024/04/05 10:11:15;;;;;;;2.40;0.57;;;;;;;35.94;28.21;97960.41;7397889;19;20010;-57
2024/04/05 10:13:41;;;;;;;8.88;0.60;;;;;;;35.42;28.95;97960.22;7394198;19;20014;-57
2024/04/05 10:16:09;;;;;;;4.30;1.27;;;;;;;37.41;27.77;97953.03;7396916;19;20010;-57
2024/04/05 10:18:39;;;;;;;2.47;0.85;;;;;;;38.22;27.03;97954.47;7395785;19;20015;-57
2024/04/05 10:21:08;;;;;;;4.22;0.60;;;;;;;38.50;26.87;97961.25;7397705;19;20062;-57
2024/04/05 10:23:44;;;;;;;3.92;0.40;;;;;;;38.04;26.69;97951.44;7392532;19;20022;-57
2024/04/05 10:26:13;;;;;;;1.13;0.50;;;;;;;37.42;26.78;97955.25;7394374;19;20010;-57
2024/04/05 10:28:41;;;;;;;10.05;0.45;;;;;;;38.05;26.39;97964.53;7393591;19;20020;-57
2024/04/05 10:31:31;;;;;;;;;;;;;;;;;;;;;
2024/04/05 10:34:23;;;;;;;2.22;0.85;;;;;;;37.31;26.93;97950.00;7397775;19;20765;-57
2024/04/05 10:36:50;;;;;;;6.30;0.70;;;;;;;37.50;26.87;97948.75;7395550;19;20010;-57
2024/04/05 10:39:19;;;;;;;8.10;1.20;;;;;;;37.44;26.71;97951.63;7395827;19;20087;-57
2024/04/05 10:41:46;;;;;;;4.13;0.75;;;;;;;38.55;26.00;97962.72;7393315;19;20015;-57
2024/04/05 10:44:13;;;;;;;4.10;0.63;;;;;;;39.42;25.47;97954.34;7392058;19;20019;-57
2024/04/05 10:46:41;;;;;;;3.25;0.77;;;;;;;39.66;25.57;97951.50;7396672;19;20018;-57
2024/04/05 10:49:07;;;;;;;0.85;0.32;;;;;;;39.62;25.12;97960.25;7393221;19;20010;-57
2024/04/05 11:07:44;;;;;;;7.22;1.02;;;;;;;39.21;25.34;97976.16;7394449;19;20022;-79
2024/04/05 11:10:19;;;;;;;4.75;1.05;;;;;;;38.31;26.06;97993.84;7392564;19;20354;-81
2024/04/05 11:12:46;;;;;;;9.77;2.00;;;;;;;38.06;25.55;97984.16;7394040;19;20040;-82
2024/04/05 11:15:17;;;;;;;11.18;0.95;;;;;;;37.78;25.82;97978.09;7389932;19;20026;-78
2024/04/05 11:18:00;;;;;;;6.43;1.17;;;;;;;37.47;26.56;97979.97;7394407;19;20011;-88
2024/04/05 11:20:29;;;;;;;2.60;0.40;;;;;;;37.19;26.48;97991.97;7393537;19;20014;-84
2024/04/05 11:22:57;;;;;;;5.72;1.17;;;;;;;37.30;26.34;97995.00;7390392;19;20461;-83
2024/04/05 11:25:23;;;;;;;2.67;0.65;;;;;;;37.51;26.32;97979.28;7386550;19;20358;-84
2024/04/05 11:27:49;;;;;;;1.85;0.50;;;;;;;37.30;26.38;97989.19;7392804;19;20033;-82
2024/04/05 11:30:15;;;;;;;3.45;0.20;;;;;;;37.56;26.91;97986.59;7389402;19;20354;-83
2024/04/05 11:32:42;;;;;;;2.58;0.20;;;;;;;37.77;26.26;97983.16;7391528;19;20039;-85
2024/04/05 11:35:14;;;;;;;2.83;0.70;;;;;;;37.73;26.13;97991.13;7390694;19;20408;-91
2024/04/05 11:37:43;;;;;;;1.95;0.30;;;;;;;37.77;26.33;97977.34;7392752;19;20018;-84
2024/04/05 11:40:11;;;;;;;0.40;0.20;;;;;;;38.00;26.25;97981.22;7392055;19;20014;-84
2024/04/05 11:42:38;;;;;;;3.15;0.50;;;;;;;38.04;25.77;97987.06;7391335;19;20054;-83
2024/04/05 11:45:11;;;;;;;4.20;0.30;;;;;;;37.64;26.42;97992.50;7385998;19;20467;-86
2024/04/05 11:47:37;;;;;;;3.42;0.47;;;;;;;37.73;26.32;97988.94;7391041;19;20473;-83
2024/04/05 11:50:04;;;;;;;1.33;0.30;;;;;;;38.07;26.39;98008.16;7387718;19;20025;-82
2024/04/05 11:52:31;;;;;;;2.35;0.65;;;;;;;37.94;26.66;98002.25;7388007;19;20050;-81